Time;durP1;ratioP1;P1;durP2;ratioP2;P2;SDS_P1;SDS_P2;PMS_P1;PMS_P2;Temp;Humidity;BMP_temperature;BMP_pressure;BME280_temperature;BME280_humidity;BME280_pressure;Samples;Min_cycle;Max_cycle;Signal;HPM_P1;HPM_P2
2022/04/21 00:00:37;;;;;;;6.37;5.77;;;11.10;7.50;;;;;;2613337;39;20790;-83
2022/04/21 00:03:04;;;;;;;5.93;5.43;;;11.10;6.80;;;;;;2614751;39;20928;-73
2022/04/21 00:05:30;;;;;;;7.73;7.00;;;11.10;7.40;;;;;;2608931;39;20779;-73
2022/04/21 00:07:56;;;;;;;6.83;5.80;;;11.00;8.20;;;;;;2609968;54;20489;-73
2022/04/21 00:10:23;;;;;;;8.70;5.50;;;11.00;7.30;;;;;;2609288;54;20467;-73
2022/04/21 00:12:49;;;;;;;6.40;5.80;;;11.00;8.20;;;;;;2609561;54;20400;-77
2022/04/21 00:15:16;;;;;;;5.97;5.47;;;10.90;8.70;;;;;;2609905;54;20424;-77
2022/04/21 00:17:42;;;;;;;5.57;5.00;;;10.80;9.30;;;;;;2611937;39;20813;-78
2022/04/21 00:20:09;;;;;;;6.17;5.57;;;10.80;9.30;;;;;;2612910;54;20476;-77
2022/04/21 00:25:19;;;;;;;7.20;5.90;;;10.70;10.50;;;;;;2611160;54;21045;-81
2022/04/21 00:27:46;;;;;;;7.40;6.47;;;10.70;11.00;;;;;;2611611;39;20824;-80
2022/04/21 00:30:14;;;;;;;6.70;5.67;;;10.70;10.90;;;;;;2610088;54;20402;-80
2022/04/21 00:32:41;;;;;;;6.80;6.27;;;10.60;11.10;;;;;;2611500;54;20431;-80
2022/04/21 00:35:11;;;;;;;6.43;5.83;;;10.50;11.60;;;;;;2610437;39;22056;-80
2022/04/21 00:37:54;;;;;;;7.33;6.20;;;10.50;12.90;;;;;;2612947;54;20471;-80
2022/04/21 00:40:23;;;;;;;6.50;5.90;;;10.50;15.50;;;;;;2613392;39;20764;-74
2022/04/21 00:42:49;;;;;;;6.00;5.50;;;10.50;15.60;;;;;;2613377;54;20391;-75
2022/04/21 00:45:16;;;;;;;6.50;5.90;;;10.50;15.50;;;;;;2614021;54;20511;-74
2022/04/21 00:47:46;;;;;;;9.27;6.27;;;10.30;16.40;;;;;;2612962;54;20400;-75
2022/04/21 00:50:19;;;;;;;6.27;5.63;;;10.20;18.40;;;;;;2613890;54;20434;-75
2022/04/21 00:52:46;;;;;;;7.30;6.60;;;10.10;20.00;;;;;;2611002;54;20418;-75
2022/04/21 00:55:12;;;;;;;7.07;6.47;;;10.00;21.50;;;;;;2610190;54;20403;-75
2022/04/21 00:57:41;;;;;;;5.53;4.83;;;9.90;26.00;;;;;;2614569;54;20413;-75
2022/04/21 01:00:08;;;;;;;8.47;6.13;;;9.80;28.50;;;;;;2612700;39;20849;-75
2022/04/21 01:02:46;;;;;;;7.10;6.30;;;9.80;29.80;;;;;;2609490;39;20493;-73
2022/04/21 01:05:16;;;;;;;8.00;6.30;;;9.70;29.70;;;;;;2609178;54;20421;-72
2022/04/21 01:07:42;;;;;;;6.57;5.73;;;9.60;32.70;;;;;;2610897;54;20479;-72
2022/04/21 01:10:09;;;;;;;6.57;5.97;;;9.50;35.90;;;;;;2609135;54;21747;-72
2022/04/21 01:12:35;;;;;;;6.90;6.33;;;9.40;39.40;;;;;;2612548;54;20504;-72
2022/04/21 01:15:01;;;;;;;7.13;5.63;;;9.40;42.10;;;;;;2613075;39;20917;-72
2022/04/21 01:17:34;;;;;;;7.10;6.50;;;9.40;43.90;;;;;;2610974;54;20404;-72
2022/04/21 01:20:00;;;;;;;6.30;5.70;;;9.40;42.50;;;;;;2610439;54;20151;-72
2022/04/21 01:22:28;;;;;;;6.60;5.70;;;9.30;45.00;;;;;;2610422;54;20453;-74
2022/04/21 01:24:55;;;;;;;7.17;6.43;;;9.20;48.30;;;;;;2611159;54;20387;-74
2022/04/21 01:27:24;;;;;;;6.77;6.07;;;9.20;50.00;;;;;;2610554;54;20383;-74
2022/04/21 01:29:50;;;;;;;6.20;5.60;;;9.10;50.60;;;;;;2611387;54;20507;-73
2022/04/21 01:32:16;;;;;;;8.63;6.27;;;9.10;52.80;;;;;;2615949;54;20943;-76
2022/04/21 01:34:42;;;;;;;7.33;6.60;;;9.00;56.90;;;;;;2617348;39;20210;-74
2022/04/21 01:42:37;;;;;;;11.77;6.20;;;8.80;66.70;;;;;;2610419;54;20366;-73
2022/04/21 01:45:03;;;;;;;8.37;7.57;;;8.80;69.20;;;;;;2610228;39;20809;-74
2022/04/21 01:47:29;;;;;;;6.53;6.00;;;8.80;70.80;;;;;;2610024;54;20153;-74
2022/04/21 01:49:55;;;;;;;7.60;6.80;;;8.70;75.20;;;;;;2614025;54;20424;-74
2022/04/21 01:52:20;;;;;;;6.63;6.03;;;8.40;88.50;;;;;;2613269;39;20475;-77
2022/04/21 01:54:50;;;;;;;6.87;6.20;;;8.30;91.70;;;;;;2608217;54;20424;-77
2022/04/21 01:57:18;;;;;;;7.80;7.10;;;8.30;92.60;;;;;;2610409;54;20154;-74
2022/04/21 01:59:43;;;;;;;8.83;7.43;;;8.30;92.10;;;;;;2609553;54;20387;-74
2022/04/21 02:02:09;;;;;;;9.10;6.23;;;8.20;93.00;;;;;;2610059;54;20406;-75
2022/04/21 02:04:35;;;;;;;7.57;6.77;;;8.20;92.20;;;;;;2608991;54;20187;-74
2022/04/21 02:07:03;;;;;;;8.37;7.57;;;8.20;91.80;;;;;;2610227;54;20232;-74
2022/04/21 02:09:29;;;;;;;7.87;7.17;;;8.20;90.90;;;;;;2613672;54;20149;-74
2022/04/21 02:11:55;;;;;;;6.87;6.27;;;8.30;88.50;;;;;;2610915;54;20425;-74
2022/04/21 02:14:21;;;;;;;7.60;6.90;;;8.30;85.50;;;;;;2609759;54;21180;-74
2022/04/21 02:16:47;;;;;;;6.20;5.70;;;8.30;85.70;;;;;;2610178;54;20386;-74
2022/04/21 02:19:13;;;;;;;7.10;6.40;;;8.30;85.20;;;;;;2611139;54;20202;-74
2022/04/21 02:21:38;;;;;;;7.37;6.73;;;8.40;83.50;;;;;;2608351;54;20158;-74
2022/04/21 02:24:05;;;;;;;8.00;6.30;;;8.40;82.60;;;;;;2609894;46;20640;-73
2022/04/21 02:26:31;;;;;;;9.60;6.93;;;8.30;86.20;;;;;;2611682;54;20254;-74
2022/04/21 02:28:57;;;;;;;7.17;6.47;;;8.30;84.60;;;;;;2613831;54;20435;-74
2022/04/21 02:31:22;;;;;;;8.77;6.60;;;8.40;84.20;;;;;;2609122;54;20418;-73
2022/04/21 02:33:48;;;;;;;7.20;6.57;;;8.40;84.70;;;;;;2608970;54;21399;-73
2022/04/21 02:36:14;;;;;;;8.73;6.90;;;8.30;85.90;;;;;;2609614;54;20148;-74
2022/04/21 02:38:40;;;;;;;7.10;6.50;;;8.30;85.60;;;;;;2609636;54;20153;-74
2022/04/21 02:41:06;;;;;;;7.00;6.40;;;8.20;86.80;;;;;;2608037;46;20169;-73
2022/04/21 02:43:32;;;;;;;9.80;7.23;;;8.10;90.20;;;;;;2613748;54;20428;-74
2022/04/21 02:45:58;;;;;;;9.33;6.93;;;8.10;90.80;;;;;;2613695;39;21163;-73
2022/04/21 02:48:24;;;;;;;7.93;6.83;;;8.10;90.10;;;;;;2610080;54;20155;-79
2022/04/21 02:50:50;;;;;;;9.83;7.47;;;8.10;88.70;;;;;;2608934;54;20433;-79
2022/04/21 02:53:18;;;;;;;7.27;5.83;;;8.10;88.60;;;;;;2608980;54;20154;-79
2022/04/21 02:58:29;;;;;;;9.80;6.80;;;8.00;91.80;;;;;;2609279;39;20837;-73
2022/04/21 03:00:54;;;;;;;7.50;6.37;;;7.90;92.60;;;;;;2611431;54;20543;-72
2022/04/21 03:03:20;;;;;;;10.70;7.00;;;7.90;94.50;;;;;;2612875;54;20153;-72
2022/04/21 03:05:46;;;;;;;8.03;7.33;;;7.80;95.30;;;;;;2609969;54;20150;-72
2022/04/21 03:08:12;;;;;;;6.53;5.93;;;7.70;97.50;;;;;;2609636;54;20147;-72
2022/04/21 03:10:37;;;;;;;10.80;6.77;;;7.70;98.80;;;;;;2609702;54;20669;-72
2022/04/21 03:13:04;;;;;;;7.60;6.80;;;7.70;99.80;;;;;;2610138;54;20171;-72
2022/04/21 03:15:30;;;;;;;9.70;7.33;;;7.70;99.70;;;;;;2609441;54;20175;-72
2022/04/21 03:17:56;;;;;;;9.83;7.20;;;7.60;99.90;;;;;;2610569;46;20473;-72
2022/04/21 03:25:50;;;;;;;8.80;6.70;;;7.50;99.90;;;;;;2609757;54;20399;-73
2022/04/21 03:28:16;;;;;;;9.80;7.30;;;7.50;99.90;;;;;;2607967;54;20422;-73
2022/04/21 03:30:42;;;;;;;8.13;7.43;;;7.40;99.90;;;;;;2609720;54;20158;-73
2022/04/21 03:33:08;;;;;;;8.33;7.53;;;7.50;99.90;;;;;;2611406;54;20261;-74
2022/04/21 03:35:35;;;;;;;9.83;7.50;;;7.50;99.90;;;;;;2610050;54;20438;-76
2022/04/21 03:38:01;;;;;;;7.77;6.47;;;7.50;99.90;;;;;;2613418;54;20155;-73
2022/04/21 03:40:27;;;;;;;8.07;7.27;;;7.50;99.90;;;;;;2614247;54;20393;-74
2022/04/21 03:42:52;;;;;;;8.03;7.20;;;7.50;99.90;;;;;;2609668;54;20534;-74
2022/04/21 03:45:18;;;;;;;7.87;7.10;;;7.60;99.90;;;;;;2610403;39;20546;-73
2022/04/21 03:47:44;;;;;;;12.33;6.60;;;7.50;99.90;;;;;;2609584;54;20189;-73
2022/04/21 03:50:10;;;;;;;8.50;7.60;;;7.50;99.90;;;;;;2608857;54;20409;-72
2022/04/21 03:52:36;;;;;;;7.77;7.03;;;7.60;99.90;;;;;;2609699;46;20166;-73
2022/04/21 03:55:01;;;;;;;8.27;7.47;;;7.60;99.90;;;;;;2609750;47;20714;-73
2022/04/21 03:57:28;;;;;;;8.27;7.30;;;7.60;99.90;;;;;;2613632;54;20165;-73
2022/04/21 03:59:54;;;;;;;8.50;7.23;;;7.60;99.90;;;;;;2609369;54;20265;-73
2022/04/21 04:02:19;;;;;;;8.40;7.50;;;7.50;99.90;;;;;;2609512;54;20522;-73
2022/04/21 04:04:45;;;;;;;7.23;6.53;;;7.30;99.90;;;;;;2610034;39;20559;-73
2022/04/21 04:12:40;;;;;;;7.30;6.60;;;7.30;99.90;;;;;;2611267;54;20402;-73
2022/04/21 04:15:07;;;;;;;7.47;6.77;;;7.30;99.90;;;;;;2613674;54;20378;-73
2022/04/21 04:17:33;;;;;;;8.17;7.37;;;7.20;99.90;;;;;;2613048;39;20855;-74
2022/04/21 04:20:00;;;;;;;8.23;7.33;;;7.10;99.90;;;;;;2611303;54;20412;-73
2022/04/21 04:22:26;;;;;;;8.13;6.77;;;7.10;99.90;;;;;;2611099;54;20409;-73
2022/04/21 04:24:54;;;;;;;9.17;7.03;;;7.10;99.90;;;;;;2610462;54;20514;-73
2022/04/21 04:27:24;;;;;;;8.80;7.40;;;7.00;99.90;;;;;;2613775;54;20479;-81
2022/04/21 04:29:50;;;;;;;7.90;7.17;;;7.00;99.90;;;;;;2614343;54;20559;-80
2022/04/21 04:32:16;;;;;;;8.43;7.63;;;7.00;99.90;;;;;;2615740;54;20503;-75
2022/04/21 04:34:43;;;;;;;9.80;8.27;;;6.90;99.90;;;;;;2615581;54;20405;-75
2022/04/21 04:37:09;;;;;;;7.90;7.10;;;6.80;99.90;;;;;;2615332;54;20425;-75
2022/04/21 04:39:34;;;;;;;8.50;7.70;;;6.80;99.90;;;;;;2615030;31;20873;-74
2022/04/21 04:42:33;;;;;;;7.87;7.13;;;6.70;99.90;;;;;;2614533;54;20394;-75
2022/04/21 04:46:34;;;;;;;11.53;7.77;;;6.80;99.90;;;;;;2614934;54;20449;-75
2022/04/21 04:47:39;;;;;;;8.50;7.70;;;6.70;99.90;;;;;;2614854;54;20506;-75
2022/04/21 04:50:07;;;;;;;9.07;8.17;;;6.60;99.90;;;;;;2613880;47;20419;-75
2022/04/21 04:52:33;;;;;;;8.57;7.77;;;6.70;99.90;;;;;;2615791;39;20900;-75
2022/04/21 04:54:59;;;;;;;9.57;8.57;;;6.60;99.90;;;;;;2615142;39;20654;-74
2022/04/21 04:57:24;;;;;;;9.13;7.77;;;6.60;99.90;;;;;;2614473;46;20458;-75
2022/04/21 04:59:50;;;;;;;9.30;7.67;;;6.70;99.90;;;;;;2615152;54;20407;-75
2022/04/21 05:02:20;;;;;;;11.30;7.90;;;6.80;99.90;;;;;;2614946;54;20160;-74
2022/04/21 05:04:48;;;;;;;8.90;8.00;;;6.90;99.90;;;;;;2614770;54;20154;-75
2022/04/21 05:07:14;;;;;;;10.77;9.10;;;6.90;99.90;;;;;;2614434;54;20958;-74
2022/04/21 05:09:40;;;;;;;9.23;8.23;;;6.90;99.90;;;;;;2614786;54;20421;-74
2022/04/21 05:12:07;;;;;;;9.57;8.57;;;7.00;99.90;;;;;;2615807;54;20212;-75
2022/04/21 05:14:34;;;;;;;9.30;8.40;;;7.00;99.90;;;;;;2615128;54;20391;-74
2022/04/21 05:17:00;;;;;;;11.10;8.20;;;7.10;99.90;;;;;;2615313;39;20782;-75
2022/04/21 05:19:26;;;;;;;11.90;8.57;;;7.20;99.90;;;;;;2614031;54;20461;-75
2022/04/21 05:21:52;;;;;;;9.50;8.07;;;7.20;99.90;;;;;;2614935;54;20951;-77
2022/04/21 05:24:19;;;;;;;9.43;8.03;;;7.40;99.90;;;;;;2614710;54;21003;-76
2022/04/21 05:26:45;;;;;;;14.90;8.40;;;7.70;99.90;;;;;;2615089;54;20418;-77
2022/04/21 05:32:01;;;;;;;8.20;7.40;;;8.40;97.70;;;;;;2611787;46;20434;-77
2022/04/21 05:34:29;;;;;;;8.90;8.00;;;8.90;90.80;;;;;;2610836;54;20418;-76
2022/04/21 05:36:55;;;;;;;8.93;7.10;;;9.10;80.80;;;;;;2613966;47;20444;-76
2022/04/21 05:39:21;;;;;;;9.33;8.50;;;9.50;75.80;;;;;;2613607;54;20434;-76
2022/04/21 05:41:48;;;;;;;9.50;8.10;;;9.70;67.40;;;;;;2612544;54;21037;-77
2022/04/21 05:44:14;;;;;;;10.80;8.80;;;10.00;59.70;;;;;;2613070;54;20400;-75
2022/04/21 05:46:41;;;;;;;10.20;8.10;;;10.30;56.90;;;;;;2613910;54;20402;-77
2022/04/21 05:49:07;;;;;;;8.17;7.37;;;10.60;51.50;;;;;;2612079;54;20412;-77
2022/04/21 05:51:33;;;;;;;9.30;8.37;;;10.80;47.70;;;;;;2610468;54;20527;-75
2022/04/21 05:54:03;;;;;;;10.07;8.97;;;10.90;45.00;;;;;;2610093;54;20431;-77
2022/04/21 05:56:29;;;;;;;10.47;9.30;;;11.10;44.90;;;;;;2610800;54;21300;-77
2022/04/21 05:58:55;;;;;;;9.07;8.10;;;11.40;40.60;;;;;;2608167;39;20796;-76
2022/04/21 06:01:21;;;;;;;13.27;7.47;;;11.60;39.10;;;;;;2613389;54;20403;-77
2022/04/21 06:03:46;;;;;;;12.30;8.67;;;11.80;36.90;;;;;;2612809;39;20551;-76
2022/04/21 06:06:12;;;;;;;16.83;7.83;;;11.90;33.00;;;;;;2608802;54;20171;-77
2022/04/21 06:08:39;;;;;;;9.80;8.80;;;12.20;30.50;;;;;;2610229;54;20254;-77
2022/04/21 06:11:05;;;;;;;11.17;6.97;;;12.40;28.40;;;;;;2610269;39;20851;-76
2022/04/21 06:13:31;;;;;;;8.00;7.20;;;12.40;28.40;;;;;;2610199;54;20387;-76
2022/04/21 06:16:00;;;;;;;8.17;7.43;;;12.50;28.10;;;;;;2611193;54;20400;-77
2022/04/21 06:18:26;;;;;;;8.70;7.87;;;12.60;27.50;;;;;;2610366;47;20558;-77
2022/04/21 06:20:53;;;;;;;13.33;8.20;;;12.80;25.10;;;;;;2610634;39;20968;-77
2022/04/21 06:23:20;;;;;;;9.60;8.07;;;12.90;23.70;;;;;;2611531;39;20621;-76
2022/04/21 06:25:47;;;;;;;8.37;7.63;;;13.00;23.80;;;;;;2610787;54;20426;-77
2022/04/21 06:28:13;;;;;;;8.80;8.03;;;13.10;23.00;;;;;;2610706;54;20412;-75
2022/04/21 06:30:40;;;;;;;7.27;6.67;;;13.10;23.10;;;;;;2611960;54;20449;-77
2022/04/21 06:33:06;;;;;;;11.47;10.27;;;13.30;22.10;;;;;;2612137;54;20424;-77
2022/04/21 06:35:32;;;;;;;8.10;7.40;;;13.60;21.00;;;;;;2612331;47;20428;-77
2022/04/21 06:37:58;;;;;;;6.97;6.37;;;13.90;20.50;;;;;;2615054;54;20490;-76
2022/04/21 06:40:25;;;;;;;8.93;7.33;;;14.00;18.20;;;;;;2614086;54;20383;-77
2022/04/21 06:42:51;;;;;;;9.03;8.27;;;14.10;18.10;;;;;;2611694;54;20426;-77
2022/04/21 06:48:10;;;;;;;13.07;8.37;;;14.30;14.50;;;;;;2616098;54;20199;-77
2022/04/21 06:50:37;;;;;;;7.70;6.70;;;14.40;12.90;;;;;;2616988;54;20407;-77
2022/04/21 06:53:05;;;;;;;8.90;7.40;;;14.40;11.60;;;;;;2596967;54;31608;-77
2022/04/21 06:55:32;;;;;;;8.17;7.57;;;14.40;11.70;;;;;;2613204;54;20462;-77
2022/04/21 06:57:58;;;;;;;8.10;7.20;;;14.60;11.80;;;;;;2613569;47;20994;-77
2022/04/21 07:00:26;;;;;;;8.60;7.70;;;14.80;10.80;;;;;;2609962;54;20432;-77
2022/04/21 07:02:55;;;;;;;7.53;6.83;;;15.20;8.70;;;;;;2608227;39;21272;-77
2022/04/21 07:05:22;;;;;;;6.33;5.83;;;15.40;6.30;;;;;;2606211;54;20409;-77
2022/04/21 07:07:49;;;;;;;7.90;7.20;;;15.30;4.60;;;;;;2608585;46;20443;-78
2022/04/21 07:10:16;;;;;;;9.93;6.97;;;15.50;3.10;;;;;;2610428;54;20423;-75
2022/04/21 07:12:42;;;;;;;11.50;7.03;;;15.60;1.50;;;;;;2609892;54;20441;-75
2022/04/21 07:15:12;;;;;;;6.17;5.70;;;15.60;1.00;;;;;;2609500;54;20425;-76
2022/04/21 07:17:39;;;;;;;19.73;9.43;;;15.70;1.00;;;;;;2608259;39;21999;-75
2022/04/21 07:20:09;;;;;;;6.80;6.20;;;15.80;1.00;;;;;;2608443;51;20421;-75
2022/04/21 07:22:35;;;;;;;6.87;6.37;;;16.00;1.00;;;;;;2607370;54;20521;-76
2022/04/21 07:25:03;;;;;;;6.53;5.97;;;16.20;1.00;;;;;;2608743;54;20578;-77
2022/04/21 07:27:29;;;;;;;8.40;6.20;;;16.50;1.00;;;;;;2607880;54;20421;-76
2022/04/21 07:29:56;;;;;;;7.67;6.80;;;16.80;1.00;;;;;;2609530;54;20897;-77
2022/04/21 07:32:22;;;;;;;7.87;6.80;;;16.90;1.00;;;;;;2610372;54;20153;-76
2022/04/21 07:34:48;;;;;;;6.43;6.03;;;16.90;1.00;;;;;;2609476;54;20467;-77
2022/04/21 07:37:14;;;;;;;6.97;6.47;;;16.70;1.00;;;;;;2606807;54;20467;-76
2022/04/21 07:39:43;;;;;;;7.80;7.17;;;16.80;1.00;;;;;;2607013;54;20945;-77
2022/04/21 07:42:10;;;;;;;6.83;6.20;;;17.00;1.00;;;;;;2606801;54;20161;-76
2022/04/21 07:44:37;;;;;;;6.43;5.83;;;16.90;1.00;;;;;;2607825;39;21376;-75
2022/04/21 07:47:07;;;;;;;6.90;6.30;;;16.70;1.00;;;;;;2608116;54;20458;-77
2022/04/21 07:49:45;;;;;;;5.60;5.20;;;16.80;1.00;;;;;;2609362;54;20413;-77
2022/04/21 07:55:25;;;;;;;6.43;5.80;;;16.80;1.00;;;;;;2612665;54;20441;-76
2022/04/21 07:57:53;;;;;;;7.30;6.47;;;17.20;1.00;;;;;;2608566;54;20469;-77
2022/04/21 08:00:19;;;;;;;7.90;6.33;;;17.30;1.00;;;;;;2610830;54;20407;-77
2022/04/21 08:02:47;;;;;;;6.60;5.83;;;17.30;1.00;;;;;;2611669;54;20431;-77
2022/04/21 08:05:15;;;;;;;6.67;6.17;;;17.30;1.00;;;;;;2607672;47;20260;-76
2022/04/21 08:07:41;;;;;;;7.03;6.43;;;17.40;1.00;;;;;;2614286;54;20428;-77
2022/04/21 08:10:09;;;;;;;7.30;6.70;;;17.70;1.00;;;;;;2610070;54;20458;-77
2022/04/21 08:12:42;;;;;;;6.23;5.73;;;17.90;1.00;;;;;;2606468;54;20409;-77
2022/04/21 08:15:10;;;;;;;5.90;5.43;;;17.90;1.00;;;;;;2608682;39;22034;-77
2022/04/21 08:17:37;;;;;;;6.40;5.90;;;17.80;1.00;;;;;;2608593;54;20443;-75
2022/04/21 08:20:08;;;;;;;7.33;6.63;;;17.80;1.00;;;;;;2609354;54;20469;-77
2022/04/21 08:22:34;;;;;;;6.40;5.90;;;17.50;1.00;;;;;;2607098;31;20815;-77
2022/04/21 08:33:16;;;;;;;7.93;6.00;;;18.40;1.00;;;;;;2607645;54;20394;-77
2022/04/21 08:35:44;;;;;;;6.07;5.53;;;17.90;1.00;;;;;;2608853;54;20540;-77
2022/04/21 08:38:11;;;;;;;15.33;6.60;;;17.60;1.00;;;;;;2612147;39;20830;-76
2022/04/21 08:40:38;;;;;;;5.63;5.10;;;17.10;1.00;;;;;;2607987;47;20440;-76
2022/04/21 08:43:17;;;;;;;6.50;6.00;;;16.90;1.00;;;;;;2610415;47;20433;-77
2022/04/21 08:45:44;;;;;;;5.37;4.87;;;16.40;1.00;;;;;;2612347;51;20439;-78
2022/04/21 08:48:11;;;;;;;6.17;5.70;;;16.30;1.00;;;;;;2608137;47;20451;-74
2022/04/21 08:50:38;;;;;;;6.13;5.63;;;16.20;1.00;;;;;;2599115;54;20527;-76
2022/04/21 08:53:06;;;;;;;5.70;5.20;;;16.30;1.00;;;;;;2600045;54;20424;-78
2022/04/21 08:55:33;;;;;;;9.40;5.87;;;17.00;1.00;;;;;;2602168;54;20526;-78
2022/04/21 08:57:59;;;;;;;7.73;6.70;;;17.60;1.00;;;;;;2600661;54;21007;-76
2022/04/21 09:00:25;;;;;;;7.30;5.20;;;18.20;1.00;;;;;;2598479;54;20390;-76
2022/04/21 09:02:51;;;;;;;6.90;6.33;;;18.40;1.00;;;;;;2600249;39;20713;-75
2022/04/21 09:05:20;;;;;;;7.70;6.63;;;18.80;1.00;;;;;;2617558;36;20467;-75
2022/04/21 09:07:50;;;;;;;7.47;6.50;;;19.00;1.00;;;;;;2599451;54;20173;-77
2022/04/21 09:10:17;;;;;;;12.20;6.87;;;19.40;1.00;;;;;;2600763;54;21029;-77
2022/04/21 09:12:45;;;;;;;6.23;5.73;;;19.70;1.00;;;;;;2602058;54;20434;-76
2022/04/21 09:15:17;;;;;;;6.10;5.60;;;19.60;1.00;;;;;;2608861;54;20506;-77
2022/04/21 09:17:51;;;;;;;6.60;6.00;;;19.50;1.00;;;;;;2610457;54;20598;-76
2022/04/21 09:20:21;;;;;;;6.13;5.63;;;19.60;1.00;;;;;;2610203;54;20561;-77
2022/04/21 09:22:55;;;;;;;4.53;4.13;;;19.80;1.00;;;;;;2612187;54;20422;-76
2022/04/21 09:25:24;;;;;;;6.20;5.77;;;19.20;1.00;;;;;;2610708;54;20405;-76
2022/04/21 09:27:51;;;;;;;6.13;5.63;;;19.00;1.00;;;;;;2611969;54;20409;-75
2022/04/21 09:30:17;;;;;;;5.97;5.57;;;18.90;1.00;;;;;;2612493;54;20422;-75
2022/04/21 09:33:00;;;;;;;7.37;5.13;;;18.70;1.00;;;;;;2613528;54;20443;-76
2022/04/21 09:35:33;;;;;;;5.40;5.00;;;18.10;1.00;;;;;;2612818;54;20568;-75
2022/04/21 09:38:02;;;;;;;5.17;4.87;;;17.50;1.00;;;;;;2613425;39;20503;-76
2022/04/21 09:40:29;;;;;;;6.43;5.00;;;17.00;1.00;;;;;;2610324;54;20427;-75
2022/04/21 09:43:03;;;;;;;6.97;5.10;;;16.60;1.00;;;;;;2610080;54;20438;-76
2022/04/21 09:48:21;;;;;;;6.00;5.10;;;16.00;1.00;;;;;;2609204;54;20416;-76
2022/04/21 09:50:56;;;;;;;6.87;6.20;;;15.70;1.00;;;;;;2611096;54;20451;-80
2022/04/21 09:53:24;;;;;;;5.43;4.93;;;15.90;1.00;;;;;;2611649;54;20392;-81
2022/04/21 09:55:51;;;;;;;6.30;5.70;;;16.10;1.00;;;;;;2609789;54;20459;-79
2022/04/21 09:58:18;;;;;;;5.30;4.90;;;16.30;1.00;;;;;;2612229;39;20842;-82
2022/04/21 10:00:46;;;;;;;6.30;5.60;;;16.40;1.00;;;;;;2609831;54;20409;-81
2022/04/21 10:03:13;;;;;;;6.30;5.70;;;16.40;1.00;;;;;;2610136;47;20423;-82
2022/04/21 10:05:40;;;;;;;6.30;5.70;;;16.50;1.00;;;;;;2609632;54;20420;-82
2022/04/21 10:08:08;;;;;;;6.13;5.60;;;16.60;1.00;;;;;;2611354;54;20441;-83
2022/04/21 10:10:35;;;;;;;8.30;6.30;;;16.30;1.00;;;;;;2612173;54;20384;-80
2022/04/21 10:13:03;;;;;;;5.40;5.00;;;16.10;1.00;;;;;;2612675;54;20503;-82
2022/04/21 10:15:30;;;;;;;6.40;5.80;;;15.90;1.00;;;;;;2613713;31;20877;-82
2022/04/21 10:17:57;;;;;;;7.27;6.37;;;15.70;1.00;;;;;;2610608;54;20448;-82
2022/04/21 10:20:26;;;;;;;8.60;5.93;;;15.60;1.00;;;;;;2611939;54;20454;-81
2022/04/21 10:22:54;;;;;;;6.40;5.83;;;15.60;1.00;;;;;;2612083;54;20455;-82
2022/04/21 10:25:32;;;;;;;7.50;5.70;;;15.40;1.00;;;;;;2610643;54;20404;-82
2022/04/21 10:27:58;;;;;;;9.40;5.63;;;15.50;1.00;;;;;;2612479;54;20472;-83
2022/04/21 10:30:31;;;;;;;6.90;5.87;;;15.40;1.00;;;;;;2613346;54;20392;-81
2022/04/21 10:33:01;;;;;;;6.67;6.03;;;15.40;1.00;;;;;;2612988;54;20163;-82
2022/04/21 10:35:33;;;;;;;6.27;5.67;;;15.40;1.00;;;;;;2614182;54;20411;-80
2022/04/21 10:38:14;;;;;;;5.90;5.40;;;15.60;1.00;;;;;;2614101;54;20471;-81
2022/04/21 10:41:03;;;;;;;9.73;4.70;;;15.70;1.00;;;;;;2613706;54;20393;-73
2022/04/21 10:43:50;;;;;;;6.60;5.30;;;15.90;1.00;;;;;;2609440;54;20400;-74
2022/04/21 10:46:26;;;;;;;5.67;5.17;;;16.00;1.00;;;;;;2609496;54;20442;-81
2022/04/21 10:48:52;;;;;;;5.77;5.37;;;16.20;1.00;;;;;;2613665;54;20527;-81
2022/04/21 10:57:33;;;;;;;6.50;5.90;;;16.10;1.00;;;;;;2611330;54;20424;-82
2022/04/21 11:00:05;;;;;;;7.40;6.57;;;16.30;1.00;;;;;;2611877;54;20423;-81
2022/04/21 11:02:38;;;;;;;7.23;6.20;;;16.40;1.00;;;;;;2612311;54;20429;-81
2022/04/21 11:05:22;;;;;;;6.53;5.90;;;16.60;1.00;;;;;;2609863;54;20428;-80
2022/04/21 11:07:56;;;;;;;6.10;5.57;;;17.00;1.00;;;;;;2615617;54;20573;-81
2022/04/21 11:10:37;;;;;;;13.23;6.73;;;17.60;1.00;;;;;;2615634;54;20437;-82
2022/04/21 11:13:05;;;;;;;6.77;6.17;;;17.90;1.00;;;;;;2609598;54;20427;-73
2022/04/21 11:15:36;;;;;;;5.80;5.30;;;18.20;1.00;;;;;;2610466;47;20476;-74
2022/04/21 11:18:29;;;;;;;5.90;5.40;;;18.30;1.00;;;;;;2609301;54;20454;-74
2022/04/21 11:21:26;;;;;;;8.60;6.77;;;18.60;1.00;;;;;;2608969;47;20430;-74
2022/04/21 11:23:52;;;;;;;7.43;6.53;;;19.40;1.00;;;;;;2609257;54;20438;-73
2022/04/21 11:26:25;;;;;;;5.90;5.50;;;19.70;1.00;;;;;;2613902;54;20405;-77
2022/04/21 11:28:51;;;;;;;6.70;6.03;;;20.00;1.00;;;;;;2607927;54;20185;-77
2022/04/21 11:31:20;;;;;;;7.80;6.10;;;19.80;1.00;;;;;;2609306;54;20414;-74
2022/04/21 11:33:47;;;;;;;6.13;5.63;;;20.10;1.00;;;;;;2605153;47;21556;-73
2022/04/21 11:36:14;;;;;;;7.93;5.80;;;20.40;1.00;;;;;;2607729;54;20408;-73
2022/04/21 11:38:45;;;;;;;7.70;5.60;;;20.30;1.00;;;;;;2607191;54;20423;-74
2022/04/21 11:41:13;;;;;;;10.83;6.67;;;20.20;1.00;;;;;;2609104;54;20403;-81
2022/04/21 11:43:46;;;;;;;8.43;6.10;;;20.30;1.00;;;;;;2615380;39;20789;-82
2022/04/21 11:46:12;;;;;;;10.13;6.03;;;20.30;1.00;;;;;;2612159;54;20518;-81
2022/04/21 11:48:40;;;;;;;6.17;5.67;;;19.90;1.00;;;;;;2609816;54;20537;-81
2022/04/21 11:51:07;;;;;;;7.50;6.07;;;19.10;1.00;;;;;;2612132;46;20454;-80
2022/04/21 11:53:36;;;;;;;6.97;6.37;;;18.60;1.00;;;;;;2610824;54;20397;-81
2022/04/21 11:56:05;;;;;;;8.17;6.33;;;18.00;1.00;;;;;;2613189;54;20463;-81
2022/04/21 11:58:36;;;;;;;7.07;6.23;;;17.70;1.00;;;;;;2613915;39;21272;-81
2022/04/21 12:06:48;;;;;;;6.40;5.90;;;17.40;1.00;;;;;;2616722;39;20777;-82
2022/04/21 12:09:16;;;;;;;6.60;6.20;;;18.60;1.00;;;;;;2611950;54;20422;-81
2022/04/21 12:11:49;;;;;;;7.43;6.83;;;19.00;1.00;;;;;;2609064;54;20455;-81
2022/04/21 12:14:18;;;;;;;8.10;6.90;;;19.00;1.00;;;;;;2609786;47;20422;-81
2022/04/21 12:16:45;;;;;;;8.43;6.90;;;18.60;1.00;;;;;;2612090;54;20449;-81
2022/04/21 12:19:33;;;;;;;7.63;6.60;;;18.70;1.00;;;;;;2613264;54;20465;-81
2022/04/21 12:22:01;;;;;;;6.80;6.30;;;19.10;1.00;;;;;;2613363;54;20485;-81
2022/04/21 12:24:39;;;;;;;11.20;7.33;;;19.90;1.00;;;;;;2613939;54;20425;-83
2022/04/21 12:27:12;;;;;;;6.60;6.17;;;20.30;1.00;;;;;;2610037;54;20417;-81
2022/04/21 12:29:51;;;;;;;7.00;6.40;;;20.40;1.00;;;;;;2609802;39;20862;-81
2022/04/21 12:32:27;;;;;;;9.70;7.20;;;20.10;1.00;;;;;;2607274;54;20520;-81
2022/04/21 12:34:55;;;;;;;7.90;7.03;;;19.70;1.00;;;;;;2610739;47;20406;-82
2022/04/21 12:37:29;;;;;;;7.47;6.87;;;19.30;1.00;;;;;;2613318;54;20488;-81
2022/04/21 12:39:56;;;;;;;15.13;7.30;;;19.00;1.00;;;;;;2611993;54;20435;-81
2022/04/21 12:42:23;;;;;;;9.37;7.20;;;18.70;1.00;;;;;;2613129;54;20429;-82
2022/04/21 12:44:51;;;;;;;6.97;6.43;;;18.30;1.00;;;;;;2613234;39;20772;-82
2022/04/21 12:47:21;;;;;;;8.20;7.50;;;18.10;1.00;;;;;;2614217;54;20421;-82
2022/04/21 12:50:08;;;;;;;7.93;7.10;;;18.10;1.00;;;;;;2612428;54;20415;-81
2022/04/21 12:52:39;;;;;;;8.03;6.60;;;18.30;1.00;;;;;;2613825;54;20426;-82
2022/04/21 12:55:11;;;;;;;8.13;6.97;;;17.90;1.00;;;;;;2612759;54;20433;-82
2022/04/21 12:57:38;;;;;;;7.40;6.87;;;18.00;1.00;;;;;;2612274;54;20414;-80
2022/04/21 13:00:10;;;;;;;8.30;6.90;;;18.10;1.00;;;;;;2611931;39;20794;-82
2022/04/21 13:02:36;;;;;;;8.20;7.43;;;18.40;1.00;;;;;;2613837;54;20466;-82
2022/04/21 13:05:03;;;;;;;7.93;7.23;;;18.70;1.00;;;;;;2613775;54;20398;-81
2022/04/21 13:07:29;;;;;;;9.07;8.23;;;19.00;1.00;;;;;;2609135;54;20425;-80
2022/04/21 13:09:55;;;;;;;7.67;7.07;;;18.80;1.00;;;;;;2609049;54;20422;-81
2022/04/21 13:12:21;;;;;;;8.80;8.10;;;18.40;1.00;;;;;;2611262;54;21046;-82
2022/04/21 13:14:47;;;;;;;9.10;8.30;;;18.30;1.00;;;;;;2614859;54;20459;-81
2022/04/21 13:17:13;;;;;;;10.57;7.50;;;18.70;1.00;;;;;;2611931;54;20154;-83
2022/04/21 13:19:39;;;;;;;8.00;7.27;;;19.40;1.00;;;;;;2612506;54;20711;-82
2022/04/21 13:22:05;;;;;;;13.50;8.10;;;19.00;1.00;;;;;;2611288;39;20928;-81
2022/04/21 13:24:32;;;;;;;6.90;6.40;;;18.60;1.00;;;;;;2609197;54;20150;-83
2022/04/21 13:27:32;;;;;;;7.93;7.33;;;18.90;1.00;;;;;;2609804;54;20426;-82
2022/04/21 13:29:58;;;;;;;8.33;7.53;;;19.10;1.00;;;;;;2609089;54;20401;-79
2022/04/21 13:35:10;;;;;;;9.07;8.30;;;18.90;1.00;;;;;;2613108;54;20215;-83
2022/04/21 13:37:36;;;;;;;8.70;8.10;;;19.40;1.00;;;;;;2610478;54;20562;-82
2022/04/21 13:40:02;;;;;;;7.90;7.27;;;19.60;1.00;;;;;;2606231;54;20396;-82
2022/04/21 13:42:28;;;;;;;8.77;7.97;;;19.50;1.00;;;;;;2608252;39;20857;-81
2022/04/21 13:44:54;;;;;;;9.40;7.83;;;19.80;1.00;;;;;;2608403;54;20419;-80
2022/04/21 13:47:20;;;;;;;7.40;6.60;;;19.70;1.00;;;;;;2607058;54;20195;-83
2022/04/21 13:49:46;;;;;;;11.00;8.00;;;19.80;1.00;;;;;;2606921;54;20261;-80
2022/04/21 13:52:12;;;;;;;8.20;7.53;;;19.80;1.00;;;;;;2611053;54;20419;-80
2022/04/21 13:54:41;;;;;;;9.17;8.27;;;19.50;1.00;;;;;;2610342;46;20467;-81
2022/04/21 13:57:07;;;;;;;8.13;7.53;;;19.60;1.00;;;;;;2606346;54;20538;-79